Cleveland Hopkins International Airport
KCLE : now visible

Airfield :











YOU CAN JOIN US ON...

 
LOGIN :

Register | Disclaimer

   EN    FR    IT 

 









Legend :    VFR   Marginal VFR   IFR   Intensive IFR   Very Intensive IFR
Visi :
Ceiling :
>= 8 km
>= 3000ft
5 to 8 km
1000 to 3000 ft
1500m to 5 km
500 to 1000 ft
800 to 1500m
200 to 500 ft
< 800m
< 200 ft
Symbols :   Thunderstorms  Fog  Heavy snow  Heavy precipitations  Wind > 20 kt






- Airport Elevation : 791 ft
- IATA code : CLE


KCLE - Cleveland Hopkins International

CURRENT METAR :
  • 190351Z 24023G31KT 9SM -SN BKN023 OVC033 02/M03 A2975 RMK AO2 PK WND 23033/0318 SNE06B36 SLP081 P0000 T00171033 $

EXPIRED METARs :
  • 190251Z 24021G29KT 9SM -SN SCT021 BKN027 OVC040 02/M01 A2974 RMK AO2 PK WND 25029/0251 SNB41 SLP078 P0000 60000 T00221006 50002 $
  • 190151Z 25014G23KT 10SM BKN026 BKN032 OVC042 03/M02 A2975 RMK AO2 PK WND 25027/0105 SLP082 T00281017 $

TAF KCLE
Valid from the 19 at 03:00 until the 20 at 06:00 UTC


190259Z 1903/2006 25019G30KT 6SM -SHSN OVC025
FM190500 25022G35KT P6SM VCSH OVC020
FM190800 26019G33KT P6SM OVC015
FM191800 26019G30KT 3SM -SHSN OVC015
FM192300 27015G27KT 5SM -SHSN OVC020



MET'MAP, your aeronautical weather chart ! - Copyright ORBIFLY December 2007 - Disclaimer

ORBIFLY MET'MAP TEAM :

Programming & Development : Alexandra Zaïnal
Concept & original design : Baudouin d'Aumeries
Assistance for programming : Marc-Olivier Méhu
Technical & hardware support : Manuel Goepfert

Contact : metmap@orbifly.com




SOURCES & CREDITS :

   NOAA       Earth
Advisory